首页
METAR-TAF:

METAR-TAF

机场 :

Tyndall Air Force Base

Panama City, 佛罗里达州, 美国

纬度: 30-04N, 经度: 085-35W, 海拔: 5米

当前天气观测

该预报发布于37分钟前的11:56 UTC
风速7节,风向西转西北
温度 28°C
湿度 89%
气压 1014 hPa
能見度: 16.1公里
少量云层高于3800英尺

METAR: KPAM 111156Z AUTO 29007KT 10SM FEW038 28/26 A2993 RMK AO2 SLP138 T02810261 10281 20269 53008 $

时间: 07:33 (12:33 UTC)

预报

该预报发布于17小时和33分钟前的19:00 UTC
预报有效从10日的 19点(UTC)到 12日的 01点(UTC)
风速12节,风向西
能见度10公里或以上
少量云层高于1800英尺
散云层高于5000英尺
多云层高于10000英尺
附近有阵雨
短暂存在
从 10日的 19点(UTC)到 10日的 23点(UTC)
风速20节,风向西转西北,有时为30节阵风
能見度: 8000
散云层高于1800英尺, 积雨云.
多云层高于5000英尺
雷暴, 小雨
成为
从 10日的 23点(UTC)到 10日的 24点(UTC)
风速12节,风向西转西北
能見度: 1311
少量云层高于3000英尺
散云层高于4000英尺

TAF: KPAM 101900Z 1019/1201 27012KT 9999 VCSH FEW018 SCT050 BKN100 QNH2992INS TEMPO 1019/1023 30020G30KT 8000 -TSRA SCT018CB BKN050 BECMG 1023/1024 29012KT 9999 NSW FEW030 SCT040 QNH2991INS TX30/1021Z TN27/1110Z LAST NO AMDS AFT 1024 NEXT 1311

超过4000个机场的气象观测和天气预报(METAR&TAF报告)。

可查询的气象台以黄色和红色小点在地图上表示。

将鼠标移到小点上方,可查看气象台名称。

然后点击查看天气观测和预报。

如需切换地图:点击带黑十字的绿色按钮放大地图;点击带横线的绿色按钮缩小地图;或者点击绿色箭头查看邻近地区的地图。


METAR-TAF: